sensor_id;sensor_type;location;lat;lon;timestamp;P1;durP1;ratioP1;P2;durP2;ratioP2
5722;SDS011;2886;49.722;8.612;2023-05-07T00:00:33;2.10;;;1.90;;
5722;SDS011;2886;49.722;8.612;2023-05-07T00:02:59;2.30;;;2.00;;
5722;SDS011;2886;49.722;8.612;2023-05-07T00:05:25;3.47;;;2.40;;
5722;SDS011;2886;49.722;8.612;2023-05-07T00:07:50;2.00;;;1.80;;
5722;SDS011;2886;49.722;8.612;2023-05-07T00:10:17;5.43;;;2.00;;
5722;SDS011;2886;49.722;8.612;2023-05-07T00:12:43;2.27;;;1.87;;
5722;SDS011;2886;49.722;8.612;2023-05-07T00:15:09;6.90;;;2.10;;
5722;SDS011;2886;49.722;8.612;2023-05-07T00:17:35;1.80;;;1.70;;
5722;SDS011;2886;49.722;8.612;2023-05-07T00:20:02;2.20;;;2.00;;
5722;SDS011;2886;49.722;8.612;2023-05-07T00:22:29;4.90;;;2.40;;
5722;SDS011;2886;49.722;8.612;2023-05-07T00:24:57;3.57;;;2.07;;
5722;SDS011;2886;49.722;8.612;2023-05-07T00:27:22;2.57;;;2.20;;
5722;SDS011;2886;49.722;8.612;2023-05-07T00:29:48;3.37;;;2.17;;
5722;SDS011;2886;49.722;8.612;2023-05-07T00:32:14;2.40;;;2.03;;
5722;SDS011;2886;49.722;8.612;2023-05-07T00:34:40;2.50;;;2.00;;
5722;SDS011;2886;49.722;8.612;2023-05-07T00:37:05;3.20;;;2.07;;
5722;SDS011;2886;49.722;8.612;2023-05-07T00:39:32;2.20;;;1.93;;
5722;SDS011;2886;49.722;8.612;2023-05-07T00:41:58;4.40;;;2.00;;
5722;SDS011;2886;49.722;8.612;2023-05-07T00:44:25;2.50;;;2.17;;
5722;SDS011;2886;49.722;8.612;2023-05-07T00:46:51;2.60;;;1.90;;
5722;SDS011;2886;49.722;8.612;2023-05-07T00:49:17;3.77;;;2.10;;
5722;SDS011;2886;49.722;8.612;2023-05-07T00:51:43;2.60;;;1.73;;
5722;SDS011;2886;49.722;8.612;2023-05-07T00:54:10;2.37;;;2.13;;
5722;SDS011;2886;49.722;8.612;2023-05-07T00:56:36;3.93;;;2.40;;
5722;SDS011;2886;49.722;8.612;2023-05-07T00:59:02;3.13;;;2.20;;
5722;SDS011;2886;49.722;8.612;2023-05-07T01:01:28;3.70;;;2.20;;
5722;SDS011;2886;49.722;8.612;2023-05-07T01:03:54;3.20;;;2.10;;
5722;SDS011;2886;49.722;8.612;2023-05-07T01:06:20;2.10;;;1.90;;
5722;SDS011;2886;49.722;8.612;2023-05-07T01:08:47;5.93;;;2.60;;
5722;SDS011;2886;49.722;8.612;2023-05-07T01:11:15;2.50;;;2.30;;
5722;SDS011;2886;49.722;8.612;2023-05-07T01:13:41;3.20;;;2.50;;
5722;SDS011;2886;49.722;8.612;2023-05-07T01:16:08;3.70;;;2.40;;
5722;SDS011;2886;49.722;8.612;2023-05-07T01:18:34;6.60;;;2.93;;
5722;SDS011;2886;49.722;8.612;2023-05-07T01:21:00;3.10;;;2.50;;
5722;SDS011;2886;49.722;8.612;2023-05-07T01:23:28;2.70;;;2.40;;
5722;SDS011;2886;49.722;8.612;2023-05-07T01:25:55;3.20;;;2.40;;
5722;SDS011;2886;49.722;8.612;2023-05-07T01:28:21;2.13;;;1.90;;
5722;SDS011;2886;49.722;8.612;2023-05-07T01:30:48;4.00;;;2.30;;
5722;SDS011;2886;49.722;8.612;2023-05-07T01:33:18;5.50;;;2.30;;
5722;SDS011;2886;49.722;8.612;2023-05-07T01:35:47;5.43;;;2.37;;
5722;SDS011;2886;49.722;8.612;2023-05-07T01:38:15;2.83;;;2.40;;
5722;SDS011;2886;49.722;8.612;2023-05-07T01:40:42;3.67;;;2.40;;
5722;SDS011;2886;49.722;8.612;2023-05-07T01:43:08;2.47;;;2.17;;
5722;SDS011;2886;49.722;8.612;2023-05-07T01:45:35;3.83;;;2.90;;
5722;SDS011;2886;49.722;8.612;2023-05-07T01:48:01;4.80;;;2.40;;
5722;SDS011;2886;49.722;8.612;2023-05-07T01:50:28;2.60;;;2.40;;
5722;SDS011;2886;49.722;8.612;2023-05-07T01:52:54;3.10;;;2.23;;
5722;SDS011;2886;49.722;8.612;2023-05-07T01:55:20;2.77;;;2.20;;
5722;SDS011;2886;49.722;8.612;2023-05-07T01:57:46;2.60;;;2.20;;
5722;SDS011;2886;49.722;8.612;2023-05-07T02:00:12;2.90;;;2.27;;
5722;SDS011;2886;49.722;8.612;2023-05-07T02:02:38;7.43;;;2.10;;
5722;SDS011;2886;49.722;8.612;2023-05-07T02:05:03;6.00;;;2.40;;
5722;SDS011;2886;49.722;8.612;2023-05-07T02:07:29;4.17;;;2.27;;
5722;SDS011;2886;49.722;8.612;2023-05-07T02:09:55;3.33;;;2.27;;
5722;SDS011;2886;49.722;8.612;2023-05-07T02:12:21;2.73;;;2.33;;
5722;SDS011;2886;49.722;8.612;2023-05-07T02:14:47;1.93;;;1.83;;
5722;SDS011;2886;49.722;8.612;2023-05-07T02:17:13;5.13;;;2.30;;
5722;SDS011;2886;49.722;8.612;2023-05-07T02:19:39;2.60;;;2.37;;
5722;SDS011;2886;49.722;8.612;2023-05-07T02:22:04;3.40;;;2.67;;
5722;SDS011;2886;49.722;8.612;2023-05-07T02:24:30;3.27;;;2.20;;
5722;SDS011;2886;49.722;8.612;2023-05-07T02:26:56;4.70;;;2.63;;
5722;SDS011;2886;49.722;8.612;2023-05-07T02:29:21;2.53;;;2.30;;
5722;SDS011;2886;49.722;8.612;2023-05-07T02:31:47;4.80;;;2.77;;
5722;SDS011;2886;49.722;8.612;2023-05-07T02:34:15;4.47;;;2.23;;
5722;SDS011;2886;49.722;8.612;2023-05-07T02:36:42;4.17;;;2.97;;
5722;SDS011;2886;49.722;8.612;2023-05-07T02:39:07;3.23;;;2.40;;
5722;SDS011;2886;49.722;8.612;2023-05-07T02:41:33;8.20;;;2.73;;
5722;SDS011;2886;49.722;8.612;2023-05-07T02:44:00;3.03;;;2.40;;
5722;SDS011;2886;49.722;8.612;2023-05-07T02:46:25;2.90;;;2.57;;
5722;SDS011;2886;49.722;8.612;2023-05-07T02:48:51;3.33;;;2.50;;
5722;SDS011;2886;49.722;8.612;2023-05-07T02:51:20;3.50;;;2.60;;
5722;SDS011;2886;49.722;8.612;2023-05-07T02:53:47;3.10;;;2.47;;
5722;SDS011;2886;49.722;8.612;2023-05-07T02:56:12;4.70;;;2.50;;
5722;SDS011;2886;49.722;8.612;2023-05-07T02:58:38;2.90;;;2.57;;
5722;SDS011;2886;49.722;8.612;2023-05-07T03:01:09;3.27;;;2.80;;
5722;SDS011;2886;49.722;8.612;2023-05-07T03:03:35;5.83;;;2.70;;
5722;SDS011;2886;49.722;8.612;2023-05-07T03:06:01;2.77;;;2.57;;
5722;SDS011;2886;49.722;8.612;2023-05-07T03:08:27;4.47;;;3.10;;
5722;SDS011;2886;49.722;8.612;2023-05-07T03:10:52;3.10;;;2.63;;
5722;SDS011;2886;49.722;8.612;2023-05-07T03:13:18;2.87;;;2.30;;
5722;SDS011;2886;49.722;8.612;2023-05-07T03:15:44;2.97;;;2.63;;
5722;SDS011;2886;49.722;8.612;2023-05-07T03:18:10;4.60;;;2.70;;
5722;SDS011;2886;49.722;8.612;2023-05-07T03:20:35;4.30;;;3.20;;
5722;SDS011;2886;49.722;8.612;2023-05-07T03:23:01;4.50;;;2.80;;
5722;SDS011;2886;49.722;8.612;2023-05-07T03:25:27;3.37;;;3.07;;
5722;SDS011;2886;49.722;8.612;2023-05-07T03:27:54;3.27;;;2.80;;
5722;SDS011;2886;49.722;8.612;2023-05-07T03:30:20;5.20;;;2.60;;
5722;SDS011;2886;49.722;8.612;2023-05-07T03:32:47;3.03;;;2.73;;
5722;SDS011;2886;49.722;8.612;2023-05-07T03:35:13;4.57;;;3.03;;
5722;SDS011;2886;49.722;8.612;2023-05-07T03:37:39;3.20;;;2.67;;
5722;SDS011;2886;49.722;8.612;2023-05-07T03:40:05;5.10;;;2.67;;
5722;SDS011;2886;49.722;8.612;2023-05-07T03:42:31;2.77;;;2.53;;
5722;SDS011;2886;49.722;8.612;2023-05-07T03:44:57;4.43;;;2.43;;
5722;SDS011;2886;49.722;8.612;2023-05-07T03:47:23;6.00;;;2.77;;
5722;SDS011;2886;49.722;8.612;2023-05-07T03:49:48;3.20;;;2.50;;
5722;SDS011;2886;49.722;8.612;2023-05-07T03:52:15;2.80;;;2.23;;
5722;SDS011;2886;49.722;8.612;2023-05-07T03:54:40;4.50;;;2.70;;
5722;SDS011;2886;49.722;8.612;2023-05-07T03:57:06;2.60;;;2.20;;
5722;SDS011;2886;49.722;8.612;2023-05-07T03:59:32;3.30;;;2.53;;
5722;SDS011;2886;49.722;8.612;2023-05-07T04:01:58;2.57;;;2.20;;
5722;SDS011;2886;49.722;8.612;2023-05-07T04:04:24;2.40;;;1.90;;
5722;SDS011;2886;49.722;8.612;2023-05-07T04:06:50;4.20;;;2.20;;
5722;SDS011;2886;49.722;8.612;2023-05-07T04:09:16;3.23;;;2.27;;
5722;SDS011;2886;49.722;8.612;2023-05-07T04:11:42;2.77;;;2.30;;
5722;SDS011;2886;49.722;8.612;2023-05-07T04:14:07;3.47;;;2.50;;
5722;SDS011;2886;49.722;8.612;2023-05-07T04:16:34;3.10;;;2.53;;
5722;SDS011;2886;49.722;8.612;2023-05-07T04:19:00;2.33;;;2.13;;
5722;SDS011;2886;49.722;8.612;2023-05-07T04:21:25;2.40;;;2.07;;
5722;SDS011;2886;49.722;8.612;2023-05-07T04:23:51;3.70;;;2.43;;
5722;SDS011;2886;49.722;8.612;2023-05-07T04:26:17;2.73;;;2.37;;
5722;SDS011;2886;49.722;8.612;2023-05-07T04:28:43;5.63;;;3.20;;
5722;SDS011;2886;49.722;8.612;2023-05-07T04:31:08;3.60;;;2.93;;
5722;SDS011;2886;49.722;8.612;2023-05-07T04:33:34;7.23;;;3.60;;
5722;SDS011;2886;49.722;8.612;2023-05-07T04:36:03;4.50;;;3.37;;
5722;SDS011;2886;49.722;8.612;2023-05-07T04:38:29;4.77;;;3.70;;
5722;SDS011;2886;49.722;8.612;2023-05-07T04:40:56;4.77;;;2.60;;
5722;SDS011;2886;49.722;8.612;2023-05-07T04:43:22;3.50;;;2.80;;
5722;SDS011;2886;49.722;8.612;2023-05-07T04:45:49;4.03;;;3.50;;
5722;SDS011;2886;49.722;8.612;2023-05-07T04:48:15;4.07;;;3.20;;
5722;SDS011;2886;49.722;8.612;2023-05-07T04:50:44;5.20;;;3.37;;
5722;SDS011;2886;49.722;8.612;2023-05-07T04:53:12;5.63;;;3.60;;
5722;SDS011;2886;49.722;8.612;2023-05-07T04:55:37;4.10;;;3.60;;
5722;SDS011;2886;49.722;8.612;2023-05-07T04:58:03;6.53;;;3.47;;
5722;SDS011;2886;49.722;8.612;2023-05-07T05:00:29;5.03;;;3.60;;
5722;SDS011;2886;49.722;8.612;2023-05-07T05:02:55;4.83;;;3.23;;
5722;SDS011;2886;49.722;8.612;2023-05-07T05:05:21;2.83;;;2.63;;
5722;SDS011;2886;49.722;8.612;2023-05-07T05:07:46;5.27;;;3.20;;
5722;SDS011;2886;49.722;8.612;2023-05-07T05:10:12;5.17;;;3.60;;
5722;SDS011;2886;49.722;8.612;2023-05-07T05:12:37;2.87;;;2.63;;
5722;SDS011;2886;49.722;8.612;2023-05-07T05:15:03;3.80;;;3.20;;
5722;SDS011;2886;49.722;8.612;2023-05-07T05:17:30;4.10;;;3.10;;
5722;SDS011;2886;49.722;8.612;2023-05-07T05:19:55;4.37;;;3.60;;
5722;SDS011;2886;49.722;8.612;2023-05-07T05:22:21;6.13;;;3.60;;
5722;SDS011;2886;49.722;8.612;2023-05-07T05:24:47;3.93;;;2.83;;
5722;SDS011;2886;49.722;8.612;2023-05-07T05:27:12;11.07;;;3.10;;
5722;SDS011;2886;49.722;8.612;2023-05-07T05:29:38;2.87;;;2.40;;
5722;SDS011;2886;49.722;8.612;2023-05-07T05:32:03;3.40;;;3.00;;
5722;SDS011;2886;49.722;8.612;2023-05-07T05:34:29;3.30;;;2.70;;
5722;SDS011;2886;49.722;8.612;2023-05-07T05:36:56;3.20;;;2.90;;
5722;SDS011;2886;49.722;8.612;2023-05-07T05:39:21;6.10;;;3.60;;
5722;SDS011;2886;49.722;8.612;2023-05-07T05:41:48;3.13;;;2.70;;
5722;SDS011;2886;49.722;8.612;2023-05-07T05:44:13;4.63;;;2.60;;
5722;SDS011;2886;49.722;8.612;2023-05-07T05:46:39;4.20;;;3.30;;
5722;SDS011;2886;49.722;8.612;2023-05-07T05:49:05;4.27;;;3.03;;
5722;SDS011;2886;49.722;8.612;2023-05-07T05:51:30;3.30;;;3.00;;
5722;SDS011;2886;49.722;8.612;2023-05-07T05:53:56;3.33;;;3.03;;
5722;SDS011;2886;49.722;8.612;2023-05-07T05:56:21;3.43;;;3.07;;
5722;SDS011;2886;49.722;8.612;2023-05-07T05:58:47;5.10;;;3.63;;
5722;SDS011;2886;49.722;8.612;2023-05-07T06:01:13;4.20;;;3.23;;
5722;SDS011;2886;49.722;8.612;2023-05-07T06:03:38;4.37;;;3.03;;
5722;SDS011;2886;49.722;8.612;2023-05-07T06:06:04;7.83;;;2.80;;
5722;SDS011;2886;49.722;8.612;2023-05-07T06:08:30;3.93;;;3.40;;
5722;SDS011;2886;49.722;8.612;2023-05-07T06:10:55;5.53;;;3.20;;
5722;SDS011;2886;49.722;8.612;2023-05-07T06:13:21;3.17;;;2.83;;
5722;SDS011;2886;49.722;8.612;2023-05-07T06:15:48;4.67;;;2.80;;
5722;SDS011;2886;49.722;8.612;2023-05-07T06:18:14;3.17;;;2.87;;
5722;SDS011;2886;49.722;8.612;2023-05-07T06:20:39;4.20;;;3.80;;
5722;SDS011;2886;49.722;8.612;2023-05-07T06:23:05;3.93;;;2.93;;
5722;SDS011;2886;49.722;8.612;2023-05-07T06:25:31;3.27;;;2.73;;
5722;SDS011;2886;49.722;8.612;2023-05-07T06:27:56;4.67;;;3.40;;
5722;SDS011;2886;49.722;8.612;2023-05-07T06:30:22;3.63;;;2.77;;
5722;SDS011;2886;49.722;8.612;2023-05-07T06:32:47;4.43;;;3.47;;
5722;SDS011;2886;49.722;8.612;2023-05-07T06:35:13;3.30;;;3.00;;
5722;SDS011;2886;49.722;8.612;2023-05-07T06:37:41;3.47;;;2.80;;
5722;SDS011;2886;49.722;8.612;2023-05-07T06:40:07;3.20;;;2.83;;
5722;SDS011;2886;49.722;8.612;2023-05-07T06:42:33;4.33;;;2.80;;
5722;SDS011;2886;49.722;8.612;2023-05-07T06:45:00;4.20;;;2.93;;
5722;SDS011;2886;49.722;8.612;2023-05-07T06:47:26;3.23;;;2.93;;
5722;SDS011;2886;49.722;8.612;2023-05-07T06:49:51;3.30;;;2.90;;
5722;SDS011;2886;49.722;8.612;2023-05-07T06:52:17;3.97;;;3.10;;
5722;SDS011;2886;49.722;8.612;2023-05-07T06:54:42;3.70;;;2.40;;
5722;SDS011;2886;49.722;8.612;2023-05-07T06:57:08;4.57;;;3.00;;
5722;SDS011;2886;49.722;8.612;2023-05-07T06:59:34;3.77;;;3.00;;
5722;SDS011;2886;49.722;8.612;2023-05-07T07:01:59;3.40;;;2.73;;
5722;SDS011;2886;49.722;8.612;2023-05-07T07:04:25;3.33;;;2.83;;
5722;SDS011;2886;49.722;8.612;2023-05-07T07:06:51;3.53;;;3.03;;
5722;SDS011;2886;49.722;8.612;2023-05-07T07:09:18;4.33;;;2.90;;
5722;SDS011;2886;49.722;8.612;2023-05-07T07:11:44;4.10;;;3.00;;
5722;SDS011;2886;49.722;8.612;2023-05-07T07:14:09;3.63;;;3.33;;
5722;SDS011;2886;49.722;8.612;2023-05-07T07:16:35;3.30;;;3.00;;
5722;SDS011;2886;49.722;8.612;2023-05-07T07:19:00;8.20;;;3.40;;
5722;SDS011;2886;49.722;8.612;2023-05-07T07:21:26;5.57;;;3.10;;
5722;SDS011;2886;49.722;8.612;2023-05-07T07:23:51;8.10;;;2.67;;
5722;SDS011;2886;49.722;8.612;2023-05-07T07:26:17;3.17;;;2.63;;
5722;SDS011;2886;49.722;8.612;2023-05-07T07:28:43;2.67;;;2.47;;
5722;SDS011;2886;49.722;8.612;2023-05-07T07:31:10;5.67;;;2.73;;
5722;SDS011;2886;49.722;8.612;2023-05-07T07:33:35;3.70;;;2.60;;
5722;SDS011;2886;49.722;8.612;2023-05-07T07:36:01;4.03;;;2.83;;
5722;SDS011;2886;49.722;8.612;2023-05-07T07:38:27;5.60;;;2.63;;
5722;SDS011;2886;49.722;8.612;2023-05-07T07:40:53;3.63;;;2.60;;
5722;SDS011;2886;49.722;8.612;2023-05-07T07:43:18;2.50;;;2.30;;
5722;SDS011;2886;49.722;8.612;2023-05-07T07:45:44;7.20;;;2.70;;
5722;SDS011;2886;49.722;8.612;2023-05-07T07:48:10;3.20;;;2.40;;
5722;SDS011;2886;49.722;8.612;2023-05-07T07:50:36;2.93;;;2.63;;
5722;SDS011;2886;49.722;8.612;2023-05-07T07:53:02;3.40;;;2.90;;
5722;SDS011;2886;49.722;8.612;2023-05-07T07:55:28;3.37;;;3.07;;
5722;SDS011;2886;49.722;8.612;2023-05-07T07:57:54;2.87;;;2.30;;
5722;SDS011;2886;49.722;8.612;2023-05-07T08:00:19;3.80;;;2.67;;
5722;SDS011;2886;49.722;8.612;2023-05-07T08:02:45;2.70;;;2.50;;
5722;SDS011;2886;49.722;8.612;2023-05-07T08:05:11;3.43;;;2.43;;
5722;SDS011;2886;49.722;8.612;2023-05-07T08:07:36;4.17;;;2.70;;
5722;SDS011;2886;49.722;8.612;2023-05-07T08:10:02;5.07;;;2.53;;
5722;SDS011;2886;49.722;8.612;2023-05-07T08:12:28;3.93;;;2.30;;
5722;SDS011;2886;49.722;8.612;2023-05-07T08:14:54;5.77;;;2.67;;
5722;SDS011;2886;49.722;8.612;2023-05-07T08:17:20;3.20;;;2.30;;
5722;SDS011;2886;49.722;8.612;2023-05-07T08:19:47;3.40;;;2.53;;
5722;SDS011;2886;49.722;8.612;2023-05-07T08:22:13;3.13;;;2.20;;
5722;SDS011;2886;49.722;8.612;2023-05-07T08:24:39;2.53;;;2.33;;
5722;SDS011;2886;49.722;8.612;2023-05-07T08:27:05;5.20;;;2.43;;
5722;SDS011;2886;49.722;8.612;2023-05-07T08:29:30;2.60;;;2.10;;
5722;SDS011;2886;49.722;8.612;2023-05-07T08:31:56;2.30;;;2.10;;
5722;SDS011;2886;49.722;8.612;2023-05-07T08:34:22;2.10;;;2.00;;
5722;SDS011;2886;49.722;8.612;2023-05-07T08:36:47;3.20;;;1.73;;
5722;SDS011;2886;49.722;8.612;2023-05-07T08:39:14;3.20;;;2.13;;
5722;SDS011;2886;49.722;8.612;2023-05-07T08:41:42;7.70;;;2.73;;
5722;SDS011;2886;49.722;8.612;2023-05-07T08:44:11;3.80;;;2.17;;
5722;SDS011;2886;49.722;8.612;2023-05-07T08:46:39;3.60;;;2.10;;
5722;SDS011;2886;49.722;8.612;2023-05-07T08:49:07;2.03;;;1.93;;
5722;SDS011;2886;49.722;8.612;2023-05-07T08:51:33;2.47;;;1.97;;
5722;SDS011;2886;49.722;8.612;2023-05-07T08:53:58;3.13;;;2.17;;
5722;SDS011;2886;49.722;8.612;2023-05-07T08:56:26;2.67;;;2.10;;
5722;SDS011;2886;49.722;8.612;2023-05-07T08:58:51;2.07;;;1.87;;
5722;SDS011;2886;49.722;8.612;2023-05-07T09:01:21;2.90;;;2.70;;
5722;SDS011;2886;49.722;8.612;2023-05-07T09:03:47;3.40;;;1.50;;
5722;SDS011;2886;49.722;8.612;2023-05-07T09:06:12;2.53;;;1.80;;
5722;SDS011;2886;49.722;8.612;2023-05-07T09:08:39;5.80;;;2.20;;
5722;SDS011;2886;49.722;8.612;2023-05-07T09:11:05;3.33;;;1.97;;
5722;SDS011;2886;49.722;8.612;2023-05-07T09:13:30;1.80;;;1.70;;
5722;SDS011;2886;49.722;8.612;2023-05-07T09:15:56;4.90;;;2.47;;
5722;SDS011;2886;49.722;8.612;2023-05-07T09:18:25;2.57;;;2.17;;
5722;SDS011;2886;49.722;8.612;2023-05-07T09:20:50;2.33;;;2.13;;
5722;SDS011;2886;49.722;8.612;2023-05-07T09:23:16;2.40;;;2.20;;
5722;SDS011;2886;49.722;8.612;2023-05-07T09:25:42;1.53;;;1.40;;
5722;SDS011;2886;49.722;8.612;2023-05-07T09:28:07;1.63;;;1.50;;
5722;SDS011;2886;49.722;8.612;2023-05-07T09:30:35;2.27;;;1.87;;
5722;SDS011;2886;49.722;8.612;2023-05-07T09:33:02;2.43;;;1.90;;
5722;SDS011;2886;49.722;8.612;2023-05-07T09:35:29;1.93;;;1.60;;
5722;SDS011;2886;49.722;8.612;2023-05-07T09:37:55;1.83;;;1.73;;
5722;SDS011;2886;49.722;8.612;2023-05-07T09:40:24;1.90;;;1.80;;
5722;SDS011;2886;49.722;8.612;2023-05-07T09:42:54;2.40;;;2.13;;
5722;SDS011;2886;49.722;8.612;2023-05-07T09:45:29;2.67;;;2.10;;
5722;SDS011;2886;49.722;8.612;2023-05-07T09:47:56;2.40;;;2.20;;
5722;SDS011;2886;49.722;8.612;2023-05-07T09:50:25;1.70;;;1.60;;
5722;SDS011;2886;49.722;8.612;2023-05-07T09:52:57;3.80;;;2.30;;
5722;SDS011;2886;49.722;8.612;2023-05-07T09:55:23;4.00;;;2.47;;
5722;SDS011;2886;49.722;8.612;2023-05-07T09:57:50;4.03;;;2.20;;
5722;SDS011;2886;49.722;8.612;2023-05-07T10:00:18;2.30;;;2.10;;
5722;SDS011;2886;49.722;8.612;2023-05-07T10:02:50;2.27;;;2.07;;
5722;SDS011;2886;49.722;8.612;2023-05-07T10:05:21;2.27;;;2.07;;
5722;SDS011;2886;49.722;8.612;2023-05-07T10:07:47;2.87;;;2.47;;
5722;SDS011;2886;49.722;8.612;2023-05-07T10:10:13;2.40;;;2.03;;
5722;SDS011;2886;49.722;8.612;2023-05-07T10:12:40;2.63;;;2.33;;
5722;SDS011;2886;49.722;8.612;2023-05-07T10:15:06;2.30;;;2.10;;
5722;SDS011;2886;49.722;8.612;2023-05-07T10:17:35;2.50;;;2.30;;
5722;SDS011;2886;49.722;8.612;2023-05-07T10:20:03;2.80;;;1.90;;
5722;SDS011;2886;49.722;8.612;2023-05-07T10:22:37;2.90;;;2.27;;
5722;SDS011;2886;49.722;8.612;2023-05-07T10:25:09;4.40;;;2.13;;
5722;SDS011;2886;49.722;8.612;2023-05-07T10:27:42;2.27;;;2.07;;
5722;SDS011;2886;49.722;8.612;2023-05-07T10:33:04;2.30;;;2.10;;
5722;SDS011;2886;49.722;8.612;2023-05-07T10:35:32;3.47;;;2.10;;
5722;SDS011;2886;49.722;8.612;2023-05-07T10:38:03;2.00;;;1.80;;
5722;SDS011;2886;49.722;8.612;2023-05-07T10:40:30;1.53;;;1.43;;
5722;SDS011;2886;49.722;8.612;2023-05-07T10:43:00;2.37;;;2.17;;
5722;SDS011;2886;49.722;8.612;2023-05-07T10:45:27;2.53;;;2.30;;
5722;SDS011;2886;49.722;8.612;2023-05-07T10:48:15;2.27;;;2.07;;
5722;SDS011;2886;49.722;8.612;2023-05-07T10:50:43;2.20;;;2.00;;
5722;SDS011;2886;49.722;8.612;2023-05-07T10:55:43;1.80;;;1.70;;
5722;SDS011;2886;49.722;8.612;2023-05-07T11:00:47;3.10;;;1.93;;
5722;SDS011;2886;49.722;8.612;2023-05-07T11:03:13;3.67;;;1.63;;
5722;SDS011;2886;49.722;8.612;2023-05-07T11:05:40;5.53;;;2.10;;
5722;SDS011;2886;49.722;8.612;2023-05-07T11:08:06;2.10;;;1.90;;
5722;SDS011;2886;49.722;8.612;2023-05-07T11:10:49;2.83;;;2.30;;
5722;SDS011;2886;49.722;8.612;2023-05-07T11:16:22;3.60;;;2.27;;
5722;SDS011;2886;49.722;8.612;2023-05-07T11:18:50;2.20;;;2.00;;
5722;SDS011;2886;49.722;8.612;2023-05-07T11:24:09;2.60;;;2.23;;
5722;SDS011;2886;49.722;8.612;2023-05-07T11:27:08;2.73;;;2.50;;
5722;SDS011;2886;49.722;8.612;2023-05-07T11:29:27;2.20;;;1.90;;
5722;SDS011;2886;49.722;8.612;2023-05-07T11:31:54;2.60;;;2.40;;
5722;SDS011;2886;49.722;8.612;2023-05-07T11:34:24;4.53;;;2.23;;
5722;SDS011;2886;49.722;8.612;2023-05-07T11:36:51;4.33;;;2.90;;
5722;SDS011;2886;49.722;8.612;2023-05-07T11:39:27;4.00;;;2.90;;
5722;SDS011;2886;49.722;8.612;2023-05-07T11:41:54;8.10;;;2.57;;
5722;SDS011;2886;49.722;8.612;2023-05-07T11:44:20;4.53;;;2.47;;
5722;SDS011;2886;49.722;8.612;2023-05-07T11:46:46;2.93;;;2.20;;
5722;SDS011;2886;49.722;8.612;2023-05-07T11:49:13;2.53;;;2.20;;
5722;SDS011;2886;49.722;8.612;2023-05-07T11:51:39;4.10;;;2.00;;
5722;SDS011;2886;49.722;8.612;2023-05-07T11:54:05;2.30;;;2.10;;
5722;SDS011;2886;49.722;8.612;2023-05-07T11:56:36;2.50;;;2.23;;
5722;SDS011;2886;49.722;8.612;2023-05-07T11:59:02;2.23;;;2.13;;
5722;SDS011;2886;49.722;8.612;2023-05-07T12:01:27;5.33;;;2.13;;
5722;SDS011;2886;49.722;8.612;2023-05-07T12:03:53;4.13;;;2.40;;
5722;SDS011;2886;49.722;8.612;2023-05-07T12:06:18;3.47;;;2.10;;
5722;SDS011;2886;49.722;8.612;2023-05-07T12:08:44;2.37;;;2.13;;
5722;SDS011;2886;49.722;8.612;2023-05-07T12:11:44;7.67;;;2.30;;
5722;SDS011;2886;49.722;8.612;2023-05-07T12:14:04;2.13;;;2.03;;
5722;SDS011;2886;49.722;8.612;2023-05-07T12:16:30;3.13;;;2.13;;
5722;SDS011;2886;49.722;8.612;2023-05-07T12:18:56;2.17;;;1.97;;
5722;SDS011;2886;49.722;8.612;2023-05-07T12:21:23;6.63;;;2.23;;
5722;SDS011;2886;49.722;8.612;2023-05-07T12:23:50;2.27;;;2.07;;
5722;SDS011;2886;49.722;8.612;2023-05-07T12:26:16;2.10;;;1.87;;
5722;SDS011;2886;49.722;8.612;2023-05-07T12:28:41;2.03;;;1.93;;
5722;SDS011;2886;49.722;8.612;2023-05-07T12:31:07;3.93;;;2.30;;
5722;SDS011;2886;49.722;8.612;2023-05-07T12:33:33;3.23;;;2.00;;
5722;SDS011;2886;49.722;8.612;2023-05-07T12:36:02;3.00;;;2.00;;
5722;SDS011;2886;49.722;8.612;2023-05-07T12:38:34;1.97;;;1.87;;
5722;SDS011;2886;49.722;8.612;2023-05-07T12:41:04;2.37;;;2.00;;
5722;SDS011;2886;49.722;8.612;2023-05-07T12:43:32;2.10;;;1.77;;
5722;SDS011;2886;49.722;8.612;2023-05-07T12:45:59;2.37;;;2.17;;
5722;SDS011;2886;49.722;8.612;2023-05-07T12:48:27;2.23;;;2.13;;
5722;SDS011;2886;49.722;8.612;2023-05-07T12:50:53;2.37;;;2.00;;
5722;SDS011;2886;49.722;8.612;2023-05-07T12:53:22;4.70;;;2.50;;
5722;SDS011;2886;49.722;8.612;2023-05-07T12:55:50;2.77;;;1.90;;
5722;SDS011;2886;49.722;8.612;2023-05-07T12:58:22;3.10;;;2.70;;
5722;SDS011;2886;49.722;8.612;2023-05-07T13:00:53;2.40;;;2.00;;
5722;SDS011;2886;49.722;8.612;2023-05-07T13:03:23;2.50;;;1.90;;
5722;SDS011;2886;49.722;8.612;2023-05-07T13:06:00;5.27;;;2.00;;
5722;SDS011;2886;49.722;8.612;2023-05-07T13:08:31;3.40;;;2.70;;
5722;SDS011;2886;49.722;8.612;2023-05-07T13:10:59;2.60;;;2.40;;
5722;SDS011;2886;49.722;8.612;2023-05-07T13:13:29;2.20;;;2.00;;
5722;SDS011;2886;49.722;8.612;2023-05-07T13:15:59;2.13;;;1.93;;
5722;SDS011;2886;49.722;8.612;2023-05-07T13:18:25;4.07;;;2.20;;
5722;SDS011;2886;49.722;8.612;2023-05-07T13:20:52;2.17;;;2.07;;
5722;SDS011;2886;49.722;8.612;2023-05-07T13:23:19;3.07;;;2.50;;
5722;SDS011;2886;49.722;8.612;2023-05-07T13:25:44;3.73;;;3.43;;
5722;SDS011;2886;49.722;8.612;2023-05-07T13:28:10;3.40;;;2.63;;
5722;SDS011;2886;49.722;8.612;2023-05-07T13:30:36;3.90;;;2.80;;
5722;SDS011;2886;49.722;8.612;2023-05-07T13:33:02;3.03;;;2.73;;
5722;SDS011;2886;49.722;8.612;2023-05-07T13:35:27;2.60;;;2.27;;
5722;SDS011;2886;49.722;8.612;2023-05-07T13:37:53;3.40;;;2.43;;
5722;SDS011;2886;49.722;8.612;2023-05-07T13:40:20;2.97;;;2.37;;
5722;SDS011;2886;49.722;8.612;2023-05-07T13:42:47;3.40;;;2.87;;
5722;SDS011;2886;49.722;8.612;2023-05-07T13:45:13;3.23;;;2.70;;
5722;SDS011;2886;49.722;8.612;2023-05-07T13:47:39;2.67;;;2.47;;
5722;SDS011;2886;49.722;8.612;2023-05-07T13:50:06;3.23;;;2.43;;
5722;SDS011;2886;49.722;8.612;2023-05-07T13:52:33;6.57;;;2.77;;
5722;SDS011;2886;49.722;8.612;2023-05-07T13:54:58;3.50;;;2.50;;
5722;SDS011;2886;49.722;8.612;2023-05-07T13:57:24;3.83;;;2.30;;
5722;SDS011;2886;49.722;8.612;2023-05-07T13:59:50;3.20;;;2.90;;
5722;SDS011;2886;49.722;8.612;2023-05-07T14:02:15;3.10;;;2.73;;
5722;SDS011;2886;49.722;8.612;2023-05-07T14:04:41;3.07;;;2.77;;
5722;SDS011;2886;49.722;8.612;2023-05-07T14:07:07;4.83;;;2.70;;
5722;SDS011;2886;49.722;8.612;2023-05-07T14:09:33;3.87;;;2.70;;
5722;SDS011;2886;49.722;8.612;2023-05-07T14:11:58;8.03;;;2.67;;
5722;SDS011;2886;49.722;8.612;2023-05-07T14:14:24;4.87;;;2.50;;
5722;SDS011;2886;49.722;8.612;2023-05-07T14:16:50;7.90;;;3.10;;
5722;SDS011;2886;49.722;8.612;2023-05-07T14:19:15;3.37;;;3.07;;
5722;SDS011;2886;49.722;8.612;2023-05-07T14:21:41;3.13;;;2.83;;
5722;SDS011;2886;49.722;8.612;2023-05-07T14:24:07;4.30;;;2.73;;
5722;SDS011;2886;49.722;8.612;2023-05-07T14:26:35;4.20;;;2.97;;
5722;SDS011;2886;49.722;8.612;2023-05-07T14:29:01;8.53;;;3.20;;
5722;SDS011;2886;49.722;8.612;2023-05-07T14:31:27;5.50;;;3.40;;
5722;SDS011;2886;49.722;8.612;2023-05-07T14:33:54;6.20;;;2.40;;
5722;SDS011;2886;49.722;8.612;2023-05-07T14:36:19;3.40;;;3.00;;
5722;SDS011;2886;49.722;8.612;2023-05-07T14:38:46;3.47;;;2.80;;
5722;SDS011;2886;49.722;8.612;2023-05-07T14:41:13;5.63;;;3.00;;
5722;SDS011;2886;49.722;8.612;2023-05-07T14:43:39;3.67;;;2.70;;
5722;SDS011;2886;49.722;8.612;2023-05-07T14:46:05;3.00;;;2.70;;
5722;SDS011;2886;49.722;8.612;2023-05-07T14:48:31;5.27;;;3.50;;
5722;SDS011;2886;49.722;8.612;2023-05-07T14:50:56;2.97;;;2.73;;
5722;SDS011;2886;49.722;8.612;2023-05-07T14:53:22;4.20;;;2.70;;
5722;SDS011;2886;49.722;8.612;2023-05-07T14:55:48;4.27;;;2.60;;
5722;SDS011;2886;49.722;8.612;2023-05-07T14:58:14;2.80;;;2.40;;
5722;SDS011;2886;49.722;8.612;2023-05-07T15:00:40;4.50;;;2.80;;
5722;SDS011;2886;49.722;8.612;2023-05-07T15:03:06;3.23;;;2.73;;
5722;SDS011;2886;49.722;8.612;2023-05-07T15:05:35;3.13;;;2.83;;
5722;SDS011;2886;49.722;8.612;2023-05-07T15:08:01;3.33;;;2.97;;
5722;SDS011;2886;49.722;8.612;2023-05-07T15:10:27;7.37;;;3.40;;
5722;SDS011;2886;49.722;8.612;2023-05-07T15:12:53;2.97;;;2.73;;
5722;SDS011;2886;49.722;8.612;2023-05-07T15:15:18;5.53;;;3.67;;
5722;SDS011;2886;49.722;8.612;2023-05-07T15:17:44;2.60;;;2.40;;
5722;SDS011;2886;49.722;8.612;2023-05-07T15:20:10;3.20;;;2.53;;
5722;SDS011;2886;49.722;8.612;2023-05-07T15:22:36;2.60;;;2.40;;
5722;SDS011;2886;49.722;8.612;2023-05-07T15:25:02;3.00;;;2.40;;